sensor_id;sensor_type;location;lat;lon;timestamp;P1;durP1;ratioP1;P2;durP2;ratioP2
30068;SDS011;16894;49.456;10.644;2023-06-26T00:02:14;51.30;;;47.90;;
30068;SDS011;16894;49.456;10.644;2023-06-26T00:04:41;48.60;;;45.45;;
30068;SDS011;16894;49.456;10.644;2023-06-26T00:07:10;44.63;;;41.63;;
30068;SDS011;16894;49.456;10.644;2023-06-26T00:09:36;44.08;;;41.10;;
30068;SDS011;16894;49.456;10.644;2023-06-26T00:12:02;44.47;;;41.47;;
30068;SDS011;16894;49.456;10.644;2023-06-26T00:14:28;46.22;;;42.60;;
30068;SDS011;16894;49.456;10.644;2023-06-26T00:16:54;43.58;;;40.50;;
30068;SDS011;16894;49.456;10.644;2023-06-26T00:19:19;43.73;;;40.90;;
30068;SDS011;16894;49.456;10.644;2023-06-26T00:21:45;38.40;;;35.73;;
30068;SDS011;16894;49.456;10.644;2023-06-26T00:24:14;37.67;;;34.92;;
30068;SDS011;16894;49.456;10.644;2023-06-26T00:26:40;38.70;;;35.78;;
30068;SDS011;16894;49.456;10.644;2023-06-26T00:29:06;38.77;;;35.70;;
30068;SDS011;16894;49.456;10.644;2023-06-26T00:31:31;33.33;;;30.83;;
30068;SDS011;16894;49.456;10.644;2023-06-26T00:33:57;37.23;;;34.57;;
30068;SDS011;16894;49.456;10.644;2023-06-26T00:36:22;35.30;;;32.73;;
30068;SDS011;16894;49.456;10.644;2023-06-26T00:38:49;36.70;;;34.08;;
30068;SDS011;16894;49.456;10.644;2023-06-26T00:41:15;37.88;;;35.30;;
30068;SDS011;16894;49.456;10.644;2023-06-26T00:43:41;39.90;;;37.13;;
30068;SDS011;16894;49.456;10.644;2023-06-26T00:46:12;42.65;;;39.75;;
30068;SDS011;16894;49.456;10.644;2023-06-26T00:48:39;36.58;;;33.97;;
30068;SDS011;16894;49.456;10.644;2023-06-26T00:51:07;32.55;;;30.13;;
30068;SDS011;16894;49.456;10.644;2023-06-26T00:55:59;31.70;;;29.45;;
30068;SDS011;16894;49.456;10.644;2023-06-26T00:58:27;33.58;;;30.92;;
30068;SDS011;16894;49.456;10.644;2023-06-26T01:00:53;36.80;;;34.10;;
30068;SDS011;16894;49.456;10.644;2023-06-26T01:03:19;38.73;;;36.07;;
30068;SDS011;16894;49.456;10.644;2023-06-26T01:05:46;39.35;;;36.67;;
30068;SDS011;16894;49.456;10.644;2023-06-26T01:08:14;43.88;;;40.90;;
30068;SDS011;16894;49.456;10.644;2023-06-26T01:13:06;37.92;;;35.33;;
30068;SDS011;16894;49.456;10.644;2023-06-26T01:15:34;46.63;;;43.58;;
30068;SDS011;16894;49.456;10.644;2023-06-26T01:18:00;44.45;;;41.55;;
30068;SDS011;16894;49.456;10.644;2023-06-26T01:20:36;41.67;;;38.67;;
30068;SDS011;16894;49.456;10.644;2023-06-26T01:23:14;39.38;;;36.67;;
30068;SDS011;16894;49.456;10.644;2023-06-26T01:28:37;31.63;;;29.42;;
30068;SDS011;16894;49.456;10.644;2023-06-26T01:31:05;32.33;;;30.15;;
30068;SDS011;16894;49.456;10.644;2023-06-26T01:33:32;34.50;;;32.05;;
30068;SDS011;16894;49.456;10.644;2023-06-26T01:35:57;36.60;;;34.08;;
30068;SDS011;16894;49.456;10.644;2023-06-26T01:38:23;36.08;;;33.50;;
30068;SDS011;16894;49.456;10.644;2023-06-26T01:40:50;42.70;;;39.38;;
30068;SDS011;16894;49.456;10.644;2023-06-26T01:43:27;49.00;;;45.47;;
30068;SDS011;16894;49.456;10.644;2023-06-26T01:49:12;40.78;;;37.97;;
30068;SDS011;16894;49.456;10.644;2023-06-26T01:55:17;42.38;;;39.55;;
30068;SDS011;16894;49.456;10.644;2023-06-26T01:58:03;39.22;;;36.58;;
30068;SDS011;16894;49.456;10.644;2023-06-26T02:00:29;45.30;;;42.17;;
30068;SDS011;16894;49.456;10.644;2023-06-26T02:05:22;56.92;;;53.28;;
30068;SDS011;16894;49.456;10.644;2023-06-26T02:07:48;43.10;;;40.17;;
30068;SDS011;16894;49.456;10.644;2023-06-26T02:10:14;40.27;;;37.57;;
30068;SDS011;16894;49.456;10.644;2023-06-26T02:12:40;43.67;;;40.72;;
30068;SDS011;16894;49.456;10.644;2023-06-26T02:15:06;44.35;;;41.25;;
30068;SDS011;16894;49.456;10.644;2023-06-26T02:17:32;46.65;;;43.60;;
30068;SDS011;16894;49.456;10.644;2023-06-26T02:19:58;40.27;;;37.63;;
30068;SDS011;16894;49.456;10.644;2023-06-26T02:22:24;40.60;;;38.00;;
30068;SDS011;16894;49.456;10.644;2023-06-26T02:24:49;40.83;;;38.03;;
30068;SDS011;16894;49.456;10.644;2023-06-26T02:27:15;43.00;;;40.33;;
30068;SDS011;16894;49.456;10.644;2023-06-26T02:29:41;47.23;;;43.97;;
30068;SDS011;16894;49.456;10.644;2023-06-26T02:32:07;53.35;;;49.92;;
30068;SDS011;16894;49.456;10.644;2023-06-26T02:34:34;45.15;;;42.10;;
30068;SDS011;16894;49.456;10.644;2023-06-26T02:37:01;48.22;;;44.75;;
30068;SDS011;16894;49.456;10.644;2023-06-26T02:39:27;42.50;;;39.47;;
30068;SDS011;16894;49.456;10.644;2023-06-26T02:41:53;42.55;;;39.53;;
30068;SDS011;16894;49.456;10.644;2023-06-26T02:44:19;41.72;;;38.92;;
30068;SDS011;16894;49.456;10.644;2023-06-26T02:46:46;41.47;;;38.70;;
30068;SDS011;16894;49.456;10.644;2023-06-26T02:49:12;41.60;;;38.72;;
30068;SDS011;16894;49.456;10.644;2023-06-26T02:51:37;46.03;;;42.70;;
30068;SDS011;16894;49.456;10.644;2023-06-26T02:54:03;55.47;;;51.70;;
30068;SDS011;16894;49.456;10.644;2023-06-26T02:56:29;51.35;;;47.85;;
30068;SDS011;16894;49.456;10.644;2023-06-26T02:58:55;50.27;;;47.00;;
30068;SDS011;16894;49.456;10.644;2023-06-26T03:01:21;51.00;;;47.50;;
30068;SDS011;16894;49.456;10.644;2023-06-26T03:03:47;52.58;;;49.17;;
30068;SDS011;16894;49.456;10.644;2023-06-26T03:06:13;54.60;;;50.97;;
30068;SDS011;16894;49.456;10.644;2023-06-26T03:11:06;65.40;;;60.95;;
30068;SDS011;16894;49.456;10.644;2023-06-26T03:13:32;47.22;;;43.90;;
30068;SDS011;16894;49.456;10.644;2023-06-26T03:15:59;50.35;;;46.90;;
30068;SDS011;16894;49.456;10.644;2023-06-26T03:18:26;49.60;;;46.33;;
30068;SDS011;16894;49.456;10.644;2023-06-26T03:20:53;44.67;;;41.65;;
30068;SDS011;16894;49.456;10.644;2023-06-26T03:23:20;49.30;;;46.00;;
30068;SDS011;16894;49.456;10.644;2023-06-26T03:25:46;40.45;;;37.80;;
30068;SDS011;16894;49.456;10.644;2023-06-26T03:28:11;34.88;;;32.08;;
30068;SDS011;16894;49.456;10.644;2023-06-26T03:30:37;30.40;;;28.35;;
30068;SDS011;16894;49.456;10.644;2023-06-26T03:33:03;34.53;;;32.13;;
30068;SDS011;16894;49.456;10.644;2023-06-26T03:35:28;33.30;;;31.10;;
30068;SDS011;16894;49.456;10.644;2023-06-26T03:37:54;40.70;;;37.75;;
30068;SDS011;16894;49.456;10.644;2023-06-26T03:40:20;45.97;;;42.63;;
30068;SDS011;16894;49.456;10.644;2023-06-26T03:42:46;33.17;;;30.80;;
30068;SDS011;16894;49.456;10.644;2023-06-26T03:45:11;35.70;;;33.30;;
30068;SDS011;16894;49.456;10.644;2023-06-26T03:47:37;36.17;;;33.67;;
30068;SDS011;16894;49.456;10.644;2023-06-26T03:50:03;34.87;;;32.47;;
30068;SDS011;16894;49.456;10.644;2023-06-26T03:52:29;38.95;;;36.10;;
30068;SDS011;16894;49.456;10.644;2023-06-26T03:54:56;35.40;;;32.90;;
30068;SDS011;16894;49.456;10.644;2023-06-26T03:57:22;35.53;;;33.15;;
30068;SDS011;16894;49.456;10.644;2023-06-26T03:59:49;35.70;;;32.95;;
30068;SDS011;16894;49.456;10.644;2023-06-26T04:04:40;36.45;;;33.90;;
30068;SDS011;16894;49.456;10.644;2023-06-26T04:07:06;30.23;;;27.90;;
30068;SDS011;16894;49.456;10.644;2023-06-26T04:09:32;36.17;;;33.47;;
30068;SDS011;16894;49.456;10.644;2023-06-26T04:11:57;31.13;;;28.93;;
30068;SDS011;16894;49.456;10.644;2023-06-26T04:14:23;30.83;;;28.55;;
30068;SDS011;16894;49.456;10.644;2023-06-26T04:16:49;69.63;;;64.20;;
30068;SDS011;16894;49.456;10.644;2023-06-26T04:19:15;30.63;;;28.40;;
30068;SDS011;16894;49.456;10.644;2023-06-26T04:21:40;35.53;;;32.70;;
30068;SDS011;16894;49.456;10.644;2023-06-26T04:24:06;30.70;;;28.58;;
30068;SDS011;16894;49.456;10.644;2023-06-26T04:26:32;31.48;;;29.27;;
30068;SDS011;16894;49.456;10.644;2023-06-26T04:28:58;36.67;;;33.88;;
30068;SDS011;16894;49.456;10.644;2023-06-26T04:31:24;39.40;;;36.70;;
30068;SDS011;16894;49.456;10.644;2023-06-26T04:33:50;35.17;;;32.83;;
30068;SDS011;16894;49.456;10.644;2023-06-26T04:36:19;38.25;;;35.35;;
30068;SDS011;16894;49.456;10.644;2023-06-26T04:38:44;31.25;;;28.70;;
30068;SDS011;16894;49.456;10.644;2023-06-26T04:41:10;35.87;;;33.30;;
30068;SDS011;16894;49.456;10.644;2023-06-26T04:43:35;36.80;;;34.17;;
30068;SDS011;16894;49.456;10.644;2023-06-26T04:46:04;34.27;;;31.33;;
30068;SDS011;16894;49.456;10.644;2023-06-26T04:48:30;37.00;;;33.90;;
30068;SDS011;16894;49.456;10.644;2023-06-26T04:50:56;33.53;;;31.08;;
30068;SDS011;16894;49.456;10.644;2023-06-26T04:53:23;39.00;;;36.00;;
30068;SDS011;16894;49.456;10.644;2023-06-26T04:55:50;33.20;;;30.63;;
30068;SDS011;16894;49.456;10.644;2023-06-26T04:58:16;31.60;;;29.27;;
30068;SDS011;16894;49.456;10.644;2023-06-26T05:00:42;38.28;;;35.30;;
30068;SDS011;16894;49.456;10.644;2023-06-26T05:03:12;37.60;;;34.90;;
30068;SDS011;16894;49.456;10.644;2023-06-26T05:05:38;36.42;;;33.35;;
30068;SDS011;16894;49.456;10.644;2023-06-26T05:10:59;29.63;;;27.17;;
30068;SDS011;16894;49.456;10.644;2023-06-26T05:13:24;29.20;;;26.87;;
30068;SDS011;16894;49.456;10.644;2023-06-26T05:18:17;29.75;;;27.63;;
30068;SDS011;16894;49.456;10.644;2023-06-26T05:20:42;28.93;;;26.70;;
30068;SDS011;16894;49.456;10.644;2023-06-26T05:23:08;29.58;;;27.23;;
30068;SDS011;16894;49.456;10.644;2023-06-26T05:25:36;27.42;;;25.15;;
30068;SDS011;16894;49.456;10.644;2023-06-26T05:28:02;27.85;;;25.60;;
30068;SDS011;16894;49.456;10.644;2023-06-26T05:30:30;26.13;;;23.70;;
30068;SDS011;16894;49.456;10.644;2023-06-26T05:32:56;25.75;;;23.67;;
30068;SDS011;16894;49.456;10.644;2023-06-26T05:35:25;29.40;;;27.02;;
30068;SDS011;16894;49.456;10.644;2023-06-26T05:37:55;28.33;;;26.25;;
30068;SDS011;16894;49.456;10.644;2023-06-26T05:40:22;62.45;;;55.63;;
30068;SDS011;16894;49.456;10.644;2023-06-26T05:42:48;30.95;;;28.60;;
30068;SDS011;16894;49.456;10.644;2023-06-26T05:45:14;40.00;;;37.00;;
30068;SDS011;16894;49.456;10.644;2023-06-26T05:47:40;58.47;;;49.20;;
30068;SDS011;16894;49.456;10.644;2023-06-26T05:50:07;28.85;;;26.05;;
30068;SDS011;16894;49.456;10.644;2023-06-26T05:52:34;23.98;;;21.85;;
30068;SDS011;16894;49.456;10.644;2023-06-26T05:55:00;24.38;;;22.30;;
30068;SDS011;16894;49.456;10.644;2023-06-26T05:57:27;25.63;;;23.48;;
30068;SDS011;16894;49.456;10.644;2023-06-26T05:59:53;21.05;;;19.08;;
30068;SDS011;16894;49.456;10.644;2023-06-26T06:02:19;31.45;;;28.98;;
30068;SDS011;16894;49.456;10.644;2023-06-26T06:04:45;49.47;;;45.60;;
30068;SDS011;16894;49.456;10.644;2023-06-26T06:07:11;70.50;;;65.77;;
30068;SDS011;16894;49.456;10.644;2023-06-26T06:09:37;96.35;;;88.85;;
30068;SDS011;16894;49.456;10.644;2023-06-26T06:12:03;58.90;;;54.63;;
30068;SDS011;16894;49.456;10.644;2023-06-26T06:14:32;91.38;;;84.93;;
30068;SDS011;16894;49.456;10.644;2023-06-26T06:16:58;77.85;;;72.35;;
30068;SDS011;16894;49.456;10.644;2023-06-26T06:19:24;89.90;;;83.75;;
30068;SDS011;16894;49.456;10.644;2023-06-26T06:21:49;119.78;;;111.95;;
30068;SDS011;16894;49.456;10.644;2023-06-26T06:24:16;117.07;;;109.55;;
30068;SDS011;16894;49.456;10.644;2023-06-26T06:26:41;199.65;;;186.65;;
30068;SDS011;16894;49.456;10.644;2023-06-26T06:29:07;346.02;;;324.38;;
30068;SDS011;16894;49.456;10.644;2023-06-26T06:31:32;658.37;;;611.13;;
30068;SDS011;16894;49.456;10.644;2023-06-26T06:33:58;840.77;;;776.37;;
30068;SDS011;16894;49.456;10.644;2023-06-26T06:36:24;942.55;;;865.88;;
30068;SDS011;16894;49.456;10.644;2023-06-26T06:38:49;974.53;;;892.63;;
30068;SDS011;16894;49.456;10.644;2023-06-26T06:41:15;1025.00;;;935.07;;
30068;SDS011;16894;49.456;10.644;2023-06-26T06:43:41;1177.15;;;999.90;;
30068;SDS011;16894;49.456;10.644;2023-06-26T06:48:33;1309.25;;;999.90;;
30068;SDS011;16894;49.456;10.644;2023-06-26T06:50:59;1399.25;;;999.90;;
30068;SDS011;16894;49.456;10.644;2023-06-26T06:53:25;1505.28;;;999.90;;
30068;SDS011;16894;49.456;10.644;2023-06-26T06:55:50;1535.18;;;999.90;;
30068;SDS011;16894;49.456;10.644;2023-06-26T06:58:16;1999.90;;;999.90;;
30068;SDS011;16894;49.456;10.644;2023-06-26T07:00:44;1446.28;;;999.90;;
30068;SDS011;16894;49.456;10.644;2023-06-26T07:03:10;1504.80;;;999.90;;
30068;SDS011;16894;49.456;10.644;2023-06-26T07:05:36;1999.90;;;999.90;;
30068;SDS011;16894;49.456;10.644;2023-06-26T07:08:02;1999.90;;;999.90;;
30068;SDS011;16894;49.456;10.644;2023-06-26T07:10:28;1999.90;;;999.90;;
30068;SDS011;16894;49.456;10.644;2023-06-26T07:15:22;1999.90;;;999.90;;
30068;SDS011;16894;49.456;10.644;2023-06-26T07:17:48;1999.90;;;999.90;;
30068;SDS011;16894;49.456;10.644;2023-06-26T07:20:14;1999.90;;;999.90;;
30068;SDS011;16894;49.456;10.644;2023-06-26T07:22:43;1999.90;;;999.90;;
30068;SDS011;16894;49.456;10.644;2023-06-26T07:25:12;1999.90;;;999.90;;
30068;SDS011;16894;49.456;10.644;2023-06-26T07:30:04;1999.90;;;999.90;;
30068;SDS011;16894;49.456;10.644;2023-06-26T07:32:30;1999.90;;;999.90;;
30068;SDS011;16894;49.456;10.644;2023-06-26T07:34:56;1999.90;;;999.90;;
30068;SDS011;16894;49.456;10.644;2023-06-26T07:37:22;1999.90;;;999.90;;
30068;SDS011;16894;49.456;10.644;2023-06-26T07:39:48;1999.90;;;999.90;;
30068;SDS011;16894;49.456;10.644;2023-06-26T07:42:14;1999.90;;;999.90;;
30068;SDS011;16894;49.456;10.644;2023-06-26T07:44:41;1999.90;;;999.90;;
30068;SDS011;16894;49.456;10.644;2023-06-26T07:47:08;1999.90;;;999.90;;
30068;SDS011;16894;49.456;10.644;2023-06-26T07:49:34;1999.90;;;999.90;;
30068;SDS011;16894;49.456;10.644;2023-06-26T07:51:59;1999.90;;;999.90;;
30068;SDS011;16894;49.456;10.644;2023-06-26T07:54:25;1999.90;;;999.90;;
30068;SDS011;16894;49.456;10.644;2023-06-26T07:56:58;1999.90;;;999.90;;
30068;SDS011;16894;49.456;10.644;2023-06-26T07:59:25;1999.90;;;999.90;;
30068;SDS011;16894;49.456;10.644;2023-06-26T08:01:53;1999.90;;;999.90;;
30068;SDS011;16894;49.456;10.644;2023-06-26T08:04:19;1999.90;;;999.90;;
30068;SDS011;16894;49.456;10.644;2023-06-26T08:06:50;1999.90;;;999.90;;
30068;SDS011;16894;49.456;10.644;2023-06-26T08:09:17;1999.90;;;999.90;;
30068;SDS011;16894;49.456;10.644;2023-06-26T08:11:45;1999.90;;;999.90;;
30068;SDS011;16894;49.456;10.644;2023-06-26T08:16:39;1999.90;;;999.90;;
30068;SDS011;16894;49.456;10.644;2023-06-26T08:19:05;1999.90;;;999.90;;
30068;SDS011;16894;49.456;10.644;2023-06-26T08:23:57;1999.90;;;999.90;;
30068;SDS011;16894;49.456;10.644;2023-06-26T08:28:48;1999.90;;;999.90;;
30068;SDS011;16894;49.456;10.644;2023-06-26T08:33:39;1999.90;;;999.90;;
30068;SDS011;16894;49.456;10.644;2023-06-26T08:38:30;1999.90;;;999.90;;
30068;SDS011;16894;49.456;10.644;2023-06-26T08:43:22;1999.90;;;999.90;;
30068;SDS011;16894;49.456;10.644;2023-06-26T08:45:47;1999.90;;;999.90;;
30068;SDS011;16894;49.456;10.644;2023-06-26T08:48:16;1999.90;;;999.90;;
30068;SDS011;16894;49.456;10.644;2023-06-26T08:50:43;1999.90;;;999.90;;
30068;SDS011;16894;49.456;10.644;2023-06-26T08:55:36;1999.90;;;999.90;;
30068;SDS011;16894;49.456;10.644;2023-06-26T08:58:06;1999.90;;;999.90;;
30068;SDS011;16894;49.456;10.644;2023-06-26T09:00:31;1999.90;;;999.90;;
30068;SDS011;16894;49.456;10.644;2023-06-26T09:02:57;1999.90;;;999.90;;
30068;SDS011;16894;49.456;10.644;2023-06-26T09:05:23;1999.90;;;999.90;;
30068;SDS011;16894;49.456;10.644;2023-06-26T09:07:52;1999.90;;;999.90;;
30068;SDS011;16894;49.456;10.644;2023-06-26T09:10:20;1999.90;;;999.90;;
30068;SDS011;16894;49.456;10.644;2023-06-26T09:12:47;1999.90;;;999.90;;
30068;SDS011;16894;49.456;10.644;2023-06-26T09:15:14;1999.90;;;999.90;;
30068;SDS011;16894;49.456;10.644;2023-06-26T09:17:40;1999.90;;;999.90;;
30068;SDS011;16894;49.456;10.644;2023-06-26T09:20:07;1999.90;;;999.90;;
30068;SDS011;16894;49.456;10.644;2023-06-26T09:22:33;1999.90;;;999.90;;
30068;SDS011;16894;49.456;10.644;2023-06-26T09:25:02;1999.90;;;999.90;;
30068;SDS011;16894;49.456;10.644;2023-06-26T09:27:29;1999.90;;;999.90;;
30068;SDS011;16894;49.456;10.644;2023-06-26T09:29:55;1999.90;;;999.90;;
30068;SDS011;16894;49.456;10.644;2023-06-26T09:32:26;1999.90;;;999.90;;
30068;SDS011;16894;49.456;10.644;2023-06-26T09:34:53;1999.90;;;999.90;;
30068;SDS011;16894;49.456;10.644;2023-06-26T09:37:21;1999.90;;;999.90;;
30068;SDS011;16894;49.456;10.644;2023-06-26T09:39:47;1999.90;;;999.90;;
30068;SDS011;16894;49.456;10.644;2023-06-26T09:42:14;1999.90;;;999.90;;
30068;SDS011;16894;49.456;10.644;2023-06-26T09:44:43;1999.90;;;999.90;;
30068;SDS011;16894;49.456;10.644;2023-06-26T09:47:10;1999.90;;;999.90;;
30068;SDS011;16894;49.456;10.644;2023-06-26T09:49:36;1999.90;;;999.90;;
30068;SDS011;16894;49.456;10.644;2023-06-26T09:52:05;1999.90;;;999.90;;
30068;SDS011;16894;49.456;10.644;2023-06-26T09:54:31;1999.90;;;999.90;;
30068;SDS011;16894;49.456;10.644;2023-06-26T09:57:11;1999.90;;;999.90;;
30068;SDS011;16894;49.456;10.644;2023-06-26T09:59:38;1999.90;;;999.90;;
30068;SDS011;16894;49.456;10.644;2023-06-26T10:02:07;1999.90;;;999.90;;
30068;SDS011;16894;49.456;10.644;2023-06-26T10:04:34;1999.90;;;999.90;;
30068;SDS011;16894;49.456;10.644;2023-06-26T10:07:01;1999.90;;;999.90;;
30068;SDS011;16894;49.456;10.644;2023-06-26T10:09:29;1999.90;;;999.90;;
30068;SDS011;16894;49.456;10.644;2023-06-26T10:11:56;1999.90;;;999.90;;
30068;SDS011;16894;49.456;10.644;2023-06-26T10:14:26;1999.90;;;999.90;;
30068;SDS011;16894;49.456;10.644;2023-06-26T10:16:57;1999.90;;;999.90;;
30068;SDS011;16894;49.456;10.644;2023-06-26T10:19:24;1999.90;;;999.90;;
30068;SDS011;16894;49.456;10.644;2023-06-26T10:21:53;1999.90;;;999.90;;
30068;SDS011;16894;49.456;10.644;2023-06-26T10:24:23;1999.90;;;999.90;;
30068;SDS011;16894;49.456;10.644;2023-06-26T10:26:52;1999.90;;;999.90;;
30068;SDS011;16894;49.456;10.644;2023-06-26T10:29:22;1999.90;;;999.90;;
30068;SDS011;16894;49.456;10.644;2023-06-26T10:31:50;1999.90;;;999.90;;
30068;SDS011;16894;49.456;10.644;2023-06-26T10:34:20;1999.90;;;999.90;;
30068;SDS011;16894;49.456;10.644;2023-06-26T10:36:46;1999.90;;;999.90;;
30068;SDS011;16894;49.456;10.644;2023-06-26T10:39:13;1999.90;;;999.90;;
30068;SDS011;16894;49.456;10.644;2023-06-26T10:41:40;1999.90;;;999.90;;
30068;SDS011;16894;49.456;10.644;2023-06-26T10:44:09;1999.90;;;999.90;;
30068;SDS011;16894;49.456;10.644;2023-06-26T10:46:51;1999.90;;;999.90;;
30068;SDS011;16894;49.456;10.644;2023-06-26T10:49:25;1999.90;;;999.90;;
30068;SDS011;16894;49.456;10.644;2023-06-26T10:51:53;1999.90;;;999.90;;
30068;SDS011;16894;49.456;10.644;2023-06-26T10:54:20;1999.90;;;999.90;;
30068;SDS011;16894;49.456;10.644;2023-06-26T10:56:47;1999.90;;;999.90;;
30068;SDS011;16894;49.456;10.644;2023-06-26T10:59:22;1999.90;;;999.90;;
30068;SDS011;16894;49.456;10.644;2023-06-26T11:01:58;1999.90;;;999.90;;
30068;SDS011;16894;49.456;10.644;2023-06-26T11:04:36;1999.90;;;999.90;;
30068;SDS011;16894;49.456;10.644;2023-06-26T11:07:15;1999.90;;;999.90;;
30068;SDS011;16894;49.456;10.644;2023-06-26T11:09:54;1999.90;;;999.90;;
30068;SDS011;16894;49.456;10.644;2023-06-26T11:13:00;1999.90;;;999.90;;
30068;SDS011;16894;49.456;10.644;2023-06-26T11:15:19;1999.90;;;999.90;;
30068;SDS011;16894;49.456;10.644;2023-06-26T11:17:45;1999.90;;;999.90;;
30068;SDS011;16894;49.456;10.644;2023-06-26T11:20:13;1999.90;;;999.90;;
30068;SDS011;16894;49.456;10.644;2023-06-26T11:22:41;1999.90;;;999.90;;
30068;SDS011;16894;49.456;10.644;2023-06-26T11:25:07;1999.90;;;999.90;;
30068;SDS011;16894;49.456;10.644;2023-06-26T11:27:43;1999.90;;;999.90;;
30068;SDS011;16894;49.456;10.644;2023-06-26T11:30:10;1999.90;;;999.90;;
30068;SDS011;16894;49.456;10.644;2023-06-26T11:32:37;108.88;;;102.32;;
30068;SDS011;16894;49.456;10.644;2023-06-26T11:35:03;110.00;;;103.47;;
30068;SDS011;16894;49.456;10.644;2023-06-26T11:37:30;1999.90;;;999.90;;
30068;SDS011;16894;49.456;10.644;2023-06-26T11:39:56;1999.90;;;999.90;;
30068;SDS011;16894;49.456;10.644;2023-06-26T11:42:23;1523.28;;;771.85;;
30068;SDS011;16894;49.456;10.644;2023-06-26T11:44:49;1522.43;;;771.08;;
30068;SDS011;16894;49.456;10.644;2023-06-26T11:47:16;1523.35;;;771.92;;
30068;SDS011;16894;49.456;10.644;2023-06-26T11:49:43;1525.72;;;774.20;;
30068;SDS011;16894;49.456;10.644;2023-06-26T11:52:10;1525.80;;;774.25;;
30068;SDS011;16894;49.456;10.644;2023-06-26T11:54:37;1526.78;;;775.20;;
30068;SDS011;16894;49.456;10.644;2023-06-26T11:57:04;1055.60;;;552.17;;
30068;SDS011;16894;49.456;10.644;2023-06-26T11:59:36;1057.63;;;554.13;;
30068;SDS011;16894;49.456;10.644;2023-06-26T12:02:05;95.10;;;89.40;;
30068;SDS011;16894;49.456;10.644;2023-06-26T12:04:41;101.72;;;95.57;;
30068;SDS011;16894;49.456;10.644;2023-06-26T12:07:08;96.82;;;90.88;;
30068;SDS011;16894;49.456;10.644;2023-06-26T12:09:38;94.45;;;88.30;;
30068;SDS011;16894;49.456;10.644;2023-06-26T12:12:09;94.43;;;88.72;;
30068;SDS011;16894;49.456;10.644;2023-06-26T12:14:36;131.50;;;123.40;;
30068;SDS011;16894;49.456;10.644;2023-06-26T12:17:08;150.77;;;141.68;;
30068;SDS011;16894;49.456;10.644;2023-06-26T12:19:38;140.80;;;132.40;;
30068;SDS011;16894;49.456;10.644;2023-06-26T12:22:07;149.77;;;140.82;;
30068;SDS011;16894;49.456;10.644;2023-06-26T12:24:35;129.25;;;121.53;;
30068;SDS011;16894;49.456;10.644;2023-06-26T12:27:07;132.60;;;124.75;;
30068;SDS011;16894;49.456;10.644;2023-06-26T12:29:34;145.00;;;136.27;;
30068;SDS011;16894;49.456;10.644;2023-06-26T12:32:01;133.60;;;125.57;;
30068;SDS011;16894;49.456;10.644;2023-06-26T12:34:28;139.55;;;131.18;;
30068;SDS011;16894;49.456;10.644;2023-06-26T12:36:58;125.72;;;118.15;;
30068;SDS011;16894;49.456;10.644;2023-06-26T12:39:26;144.35;;;135.52;;
30068;SDS011;16894;49.456;10.644;2023-06-26T12:41:58;130.05;;;122.28;;
30068;SDS011;16894;49.456;10.644;2023-06-26T12:44:29;131.18;;;123.32;;
30068;SDS011;16894;49.456;10.644;2023-06-26T12:46:59;147.05;;;138.13;;
30068;SDS011;16894;49.456;10.644;2023-06-26T12:49:29;177.05;;;166.32;;
30068;SDS011;16894;49.456;10.644;2023-06-26T12:51:56;171.68;;;161.50;;
30068;SDS011;16894;49.456;10.644;2023-06-26T12:54:22;159.40;;;149.80;;
30068;SDS011;16894;49.456;10.644;2023-06-26T12:56:48;195.00;;;183.30;;
30068;SDS011;16894;49.456;10.644;2023-06-26T12:59:13;166.43;;;156.30;;
30068;SDS011;16894;49.456;10.644;2023-06-26T13:01:39;160.23;;;150.48;;
30068;SDS011;16894;49.456;10.644;2023-06-26T13:04:05;175.52;;;165.10;;
30068;SDS011;16894;49.456;10.644;2023-06-26T13:06:31;180.32;;;169.63;;
30068;SDS011;16894;49.456;10.644;2023-06-26T13:08:58;179.40;;;168.85;;
30068;SDS011;16894;49.456;10.644;2023-06-26T13:11:24;133.50;;;125.50;;
30068;SDS011;16894;49.456;10.644;2023-06-26T13:13:49;104.55;;;98.30;;
30068;SDS011;16894;49.456;10.644;2023-06-26T13:16:15;1999.90;;;999.90;;
30068;SDS011;16894;49.456;10.644;2023-06-26T13:18:41;1999.90;;;999.90;;
30068;SDS011;16894;49.456;10.644;2023-06-26T13:21:07;1999.90;;;999.90;;
30068;SDS011;16894;49.456;10.644;2023-06-26T13:23:32;1999.90;;;999.90;;
30068;SDS011;16894;49.456;10.644;2023-06-26T13:25:58;1999.90;;;999.90;;
30068;SDS011;16894;49.456;10.644;2023-06-26T13:28:24;1999.90;;;999.90;;
30068;SDS011;16894;49.456;10.644;2023-06-26T13:30:49;1999.90;;;999.90;;
30068;SDS011;16894;49.456;10.644;2023-06-26T13:33:16;1999.90;;;999.90;;
30068;SDS011;16894;49.456;10.644;2023-06-26T13:35:41;1999.90;;;999.90;;
30068;SDS011;16894;49.456;10.644;2023-06-26T13:38:07;1999.90;;;999.90;;
30068;SDS011;16894;49.456;10.644;2023-06-26T13:40:32;1999.90;;;999.90;;
30068;SDS011;16894;49.456;10.644;2023-06-26T13:42:58;1999.90;;;999.90;;
30068;SDS011;16894;49.456;10.644;2023-06-26T13:45:25;1999.90;;;999.90;;
30068;SDS011;16894;49.456;10.644;2023-06-26T13:47:50;103.65;;;97.05;;
30068;SDS011;16894;49.456;10.644;2023-06-26T13:50:16;110.65;;;103.97;;
30068;SDS011;16894;49.456;10.644;2023-06-26T13:52:41;116.20;;;109.22;;
30068;SDS011;16894;49.456;10.644;2023-06-26T13:55:07;97.20;;;91.30;;
30068;SDS011;16894;49.456;10.644;2023-06-26T13:57:33;1999.90;;;999.90;;
30068;SDS011;16894;49.456;10.644;2023-06-26T13:59:59;1999.90;;;999.90;;
30068;SDS011;16894;49.456;10.644;2023-06-26T14:02:24;1999.90;;;999.90;;
30068;SDS011;16894;49.456;10.644;2023-06-26T14:04:51;1999.90;;;999.90;;
30068;SDS011;16894;49.456;10.644;2023-06-26T14:10:08;1999.90;;;999.90;;
30068;SDS011;16894;49.456;10.644;2023-06-26T14:12:34;1999.90;;;999.90;;
30068;SDS011;16894;49.456;10.644;2023-06-26T14:15:00;1999.90;;;999.90;;
30068;SDS011;16894;49.456;10.644;2023-06-26T14:17:26;103.57;;;97.28;;
30068;SDS011;16894;49.456;10.644;2023-06-26T14:19:52;136.38;;;128.00;;
30068;SDS011;16894;49.456;10.644;2023-06-26T14:22:18;221.23;;;208.25;;
30068;SDS011;16894;49.456;10.644;2023-06-26T14:24:44;196.45;;;184.82;;
30068;SDS011;16894;49.456;10.644;2023-06-26T14:27:09;213.57;;;201.00;;
30068;SDS011;16894;49.456;10.644;2023-06-26T14:29:35;210.05;;;197.43;;
30068;SDS011;16894;49.456;10.644;2023-06-26T14:32:02;151.63;;;142.45;;
30068;SDS011;16894;49.456;10.644;2023-06-26T14:34:28;107.53;;;100.93;;
30068;SDS011;16894;49.456;10.644;2023-06-26T14:36:54;1999.90;;;999.90;;
30068;SDS011;16894;49.456;10.644;2023-06-26T14:39:20;1999.90;;;999.90;;
30068;SDS011;16894;49.456;10.644;2023-06-26T14:41:46;1999.90;;;999.90;;
30068;SDS011;16894;49.456;10.644;2023-06-26T14:44:13;1999.90;;;999.90;;
30068;SDS011;16894;49.456;10.644;2023-06-26T14:46:41;1999.90;;;999.90;;